createdAt,value
2018-10-19T00:00:42.354Z,9.50
2018-10-19T00:03:11.843Z,9.40
2018-10-19T00:05:41.150Z,9.50
2018-10-19T00:08:10.592Z,9.40
2018-10-19T00:10:40.067Z,9.40
2018-10-19T00:13:09.556Z,9.30
2018-10-19T00:15:39.024Z,9.30
2018-10-19T00:18:08.639Z,9.30
2018-10-19T00:20:37.957Z,9.30
2018-10-19T00:23:07.307Z,9.20
2018-10-19T00:25:36.745Z,9.30
2018-10-19T00:28:06.061Z,9.30
2018-10-19T00:30:35.397Z,9.30
2018-10-19T00:33:04.962Z,9.30
2018-10-19T00:35:34.241Z,9.30
2018-10-19T00:38:03.557Z,9.30
2018-10-19T00:40:32.905Z,9.30
2018-10-19T00:43:02.245Z,9.30
2018-10-19T00:45:36.982Z,9.30
2018-10-19T00:48:12.273Z,9.30
2018-10-19T00:50:42.138Z,9.30
2018-10-19T00:53:12.126Z,9.30
2018-10-19T00:55:41.547Z,9.30
2018-10-19T00:58:11.144Z,9.30
2018-10-19T01:00:41.695Z,9.30
2018-10-19T01:03:11.315Z,9.30
2018-10-19T01:05:41.229Z,9.30
2018-10-19T01:08:11.044Z,9.20
2018-10-19T01:10:40.470Z,9.30
2018-10-19T01:13:09.889Z,9.20
2018-10-19T01:15:39.260Z,9.10
2018-10-19T01:18:08.597Z,8.90
2018-10-19T01:20:37.982Z,8.90
2018-10-19T01:23:07.342Z,8.90
2018-10-19T01:25:40.683Z,8.80
2018-10-19T01:28:10.769Z,8.80
2018-10-19T01:30:40.478Z,8.70
2018-10-19T01:33:09.874Z,8.90
2018-10-19T01:35:40.087Z,8.90
2018-10-19T01:38:12.068Z,9.00
2018-10-19T01:40:41.568Z,9.00
2018-10-19T01:43:10.889Z,9.00
2018-10-19T01:45:44.542Z,9.00
2018-10-19T01:48:13.824Z,9.00
2018-10-19T01:50:43.316Z,9.00
2018-10-19T01:53:12.791Z,9.00
2018-10-19T01:55:41.964Z,9.00
2018-10-19T01:58:11.257Z,9.00
2018-10-19T02:00:40.593Z,9.00
2018-10-19T02:03:10.094Z,9.00
2018-10-19T02:05:39.456Z,9.00
2018-10-19T02:08:10.131Z,9.00
2018-10-19T02:10:40.076Z,9.10
2018-10-19T02:13:10.273Z,9.10
2018-10-19T02:15:39.713Z,9.10
2018-10-19T02:18:09.069Z,9.10
2018-10-19T02:20:38.375Z,9.20
2018-10-19T02:23:07.747Z,9.20
2018-10-19T02:25:37.095Z,9.20
2018-10-19T02:28:06.418Z,9.30
2018-10-19T02:30:35.723Z,9.30
2018-10-19T02:33:05.574Z,9.40
2018-10-19T02:35:34.932Z,9.40
2018-10-19T02:38:04.220Z,9.40
2018-10-19T02:40:33.553Z,9.50
2018-10-19T02:43:02.862Z,9.60
2018-10-19T02:45:34.649Z,9.60
2018-10-19T02:48:04.559Z,9.60
2018-10-19T02:50:33.859Z,9.60
2018-10-19T02:53:03.166Z,9.70
2018-10-19T02:55:32.505Z,9.70
2018-10-19T02:58:01.832Z,9.60
2018-10-19T03:00:31.176Z,9.60
2018-10-19T03:03:00.499Z,9.60
2018-10-19T03:05:29.833Z,9.70
2018-10-19T03:08:05.990Z,9.60
2018-10-19T03:10:35.424Z,9.50
2018-10-19T03:13:04.760Z,9.60
2018-10-19T03:15:34.110Z,9.50
2018-10-19T03:18:03.540Z,9.60
2018-10-19T03:20:32.924Z,9.60
2018-10-19T03:23:02.285Z,9.60
2018-10-19T03:25:31.607Z,9.70
2018-10-19T03:28:01.029Z,9.60
2018-10-19T03:30:30.514Z,9.70
2018-10-19T03:32:59.864Z,9.70
2018-10-19T03:35:29.176Z,9.70
2018-10-19T03:37:58.544Z,9.70
2018-10-19T03:40:28.045Z,9.70
2018-10-19T03:42:57.337Z,9.70
2018-10-19T03:45:26.687Z,9.70
2018-10-19T03:47:56.118Z,9.80
2018-10-19T03:50:25.425Z,9.80
2018-10-19T03:52:54.986Z,9.90
2018-10-19T03:55:24.335Z,10.00
2018-10-19T03:57:54.485Z,9.90
2018-10-19T04:00:23.846Z,9.80
2018-10-19T04:02:53.267Z,9.80
2018-10-19T04:05:23.597Z,9.90
2018-10-19T04:07:52.891Z,9.90
2018-10-19T04:10:22.569Z,9.90
2018-10-19T04:12:51.936Z,9.90
2018-10-19T04:15:21.403Z,9.90
2018-10-19T04:17:50.759Z,9.90
2018-10-19T04:20:20.163Z,9.80
2018-10-19T04:22:53.861Z,9.80
2018-10-19T04:25:23.746Z,9.70
2018-10-19T04:27:53.047Z,9.70
2018-10-19T04:30:22.441Z,9.70
2018-10-19T04:32:51.752Z,9.60
2018-10-19T04:35:21.142Z,9.70
2018-10-19T04:37:50.443Z,9.60
2018-10-19T04:40:21.818Z,9.70
2018-10-19T04:42:51.207Z,9.70
2018-10-19T04:45:20.940Z,9.70
2018-10-19T04:47:50.456Z,9.70
2018-10-19T04:50:19.677Z,9.70
2018-10-19T04:52:49.051Z,9.60
2018-10-19T04:55:20.600Z,9.60
2018-10-19T04:57:49.974Z,9.60
2018-10-19T05:00:20.526Z,9.60
2018-10-19T05:02:50.899Z,9.60
2018-10-19T05:05:20.664Z,9.50
2018-10-19T05:07:49.793Z,9.50
2018-10-19T05:10:19.111Z,9.40
2018-10-19T05:12:48.485Z,9.50
2018-10-19T05:15:17.904Z,9.40
2018-10-19T05:17:47.240Z,9.40
2018-10-19T05:20:16.629Z,9.30
2018-10-19T05:22:52.768Z,9.30
2018-10-19T05:25:22.389Z,9.20
2018-10-19T05:27:51.797Z,9.50
2018-10-19T05:30:21.153Z,9.60
2018-10-19T05:32:50.737Z,9.60
2018-10-19T05:35:20.049Z,9.60
2018-10-19T05:37:50.109Z,9.60
2018-10-19T05:40:19.448Z,9.50
2018-10-19T05:42:48.772Z,9.50
2018-10-19T05:45:18.225Z,9.50
2018-10-19T05:47:47.582Z,9.50
2018-10-19T05:50:17.099Z,9.60
2018-10-19T05:52:46.417Z,9.70
2018-10-19T05:55:15.873Z,9.70
2018-10-19T05:57:45.180Z,9.80
2018-10-19T06:00:14.521Z,9.90
2018-10-19T06:02:43.940Z,10.00
2018-10-19T06:05:13.331Z,9.80
2018-10-19T06:07:42.640Z,9.80
2018-10-19T06:10:12.137Z,9.70
2018-10-19T06:12:41.699Z,9.80
2018-10-19T06:15:11.186Z,9.90
2018-10-19T06:17:40.748Z,9.90
2018-10-19T06:20:10.196Z,9.90
2018-10-19T06:22:39.633Z,10.00
2018-10-19T06:25:09.260Z,10.10
2018-10-19T06:27:38.629Z,10.10
2018-10-19T06:30:08.542Z,10.10
2018-10-19T06:32:38.254Z,10.10
2018-10-19T06:35:08.145Z,10.30
2018-10-19T06:37:37.471Z,10.30
2018-10-19T06:40:06.920Z,10.30
2018-10-19T06:42:36.277Z,10.40
2018-10-19T06:45:06.437Z,10.50
2018-10-19T06:47:35.796Z,10.50
2018-10-19T06:50:07.263Z,10.60
2018-10-19T06:52:36.606Z,10.60
2018-10-19T06:55:07.991Z,10.60
2018-10-19T06:57:37.338Z,10.80
2018-10-19T07:00:07.004Z,10.80
2018-10-19T07:02:36.350Z,10.90
2018-10-19T07:05:06.333Z,11.00
2018-10-19T07:07:35.974Z,11.00
2018-10-19T07:10:06.581Z,11.00
2018-10-19T07:12:36.059Z,10.90
2018-10-19T07:15:07.229Z,11.00
2018-10-19T07:17:36.830Z,10.90
2018-10-19T07:20:07.362Z,10.90
2018-10-19T07:22:36.709Z,10.90
2018-10-19T07:25:06.538Z,10.90
2018-10-19T07:27:35.954Z,11.00
2018-10-19T07:30:05.423Z,11.10
2018-10-19T07:32:35.394Z,11.20
2018-10-19T07:35:05.586Z,11.20
2018-10-19T07:37:34.920Z,11.10
2018-10-19T07:40:04.289Z,11.10
2018-10-19T07:42:33.748Z,11.00
2018-10-19T07:45:03.069Z,11.20
2018-10-19T07:47:32.545Z,11.20
2018-10-19T07:50:02.541Z,11.50
2018-10-19T07:52:32.008Z,11.40
2018-10-19T07:55:01.487Z,11.50
2018-10-19T07:57:31.750Z,11.60
2018-10-19T08:00:01.119Z,12.00
2018-10-19T08:02:30.480Z,11.90
2018-10-19T08:04:59.888Z,11.90
2018-10-19T08:07:29.501Z,12.20
2018-10-19T08:09:59.217Z,12.40
2018-10-19T08:12:29.815Z,12.50
2018-10-19T08:14:59.752Z,12.40
2018-10-19T08:17:32.530Z,12.60
2018-10-19T08:20:06.838Z,12.70
2018-10-19T08:22:37.157Z,12.70
2018-10-19T08:25:10.732Z,12.90
2018-10-19T08:27:48.023Z,12.50
2018-10-19T08:30:23.179Z,12.60
2018-10-19T08:33:05.055Z,13.00
2018-10-19T08:35:39.347Z,12.60
2018-10-19T08:38:11.730Z,12.80
2018-10-19T08:40:44.240Z,13.00
2018-10-19T08:43:18.616Z,13.20
2018-10-19T08:45:48.299Z,12.90
2018-10-19T08:48:17.672Z,12.80
2018-10-19T08:50:47.077Z,13.00
2018-10-19T08:53:16.549Z,13.00
2018-10-19T08:55:45.890Z,13.10
2018-10-19T08:58:15.257Z,13.20
2018-10-19T09:00:44.843Z,13.30
2018-10-19T09:03:14.234Z,13.30
2018-10-19T09:05:43.588Z,13.20
2018-10-19T09:08:12.969Z,13.30
2018-10-19T09:10:42.443Z,13.30
2018-10-19T09:13:11.736Z,13.40
2018-10-19T09:15:41.170Z,13.40
2018-10-19T09:18:10.557Z,13.40
2018-10-19T09:20:39.977Z,13.30
2018-10-19T09:23:10.093Z,13.50
2018-10-19T09:25:39.496Z,13.60
2018-10-19T09:28:08.934Z,13.70
2018-10-19T09:30:38.358Z,13.60
2018-10-19T09:33:07.812Z,13.60
2018-10-19T09:35:37.585Z,13.90
2018-10-19T09:38:06.872Z,13.80
2018-10-19T09:40:36.261Z,13.90
2018-10-19T09:43:08.192Z,14.30
2018-10-19T09:45:37.700Z,14.50
2018-10-19T09:48:07.230Z,14.30
2018-10-19T09:50:37.737Z,14.50
2018-10-19T09:53:07.292Z,14.20
2018-10-19T09:55:36.695Z,14.40
2018-10-19T09:58:06.268Z,14.20
2018-10-19T10:00:42.292Z,14.10
2018-10-19T10:03:12.117Z,14.10
2018-10-19T10:05:41.673Z,14.60
2018-10-19T10:08:11.367Z,14.50
2018-10-19T10:10:41.197Z,14.20
2018-10-19T10:16:02.000Z,14.30
2018-10-19T10:18:31.433Z,14.70
2018-10-19T10:21:01.005Z,15.00
2018-10-19T10:23:30.665Z,14.70
2018-10-19T10:26:00.085Z,14.70
2018-10-19T10:28:29.540Z,15.00
2018-10-19T10:30:58.896Z,15.40
2018-10-19T10:33:28.377Z,15.50
2018-10-19T10:35:57.706Z,15.70
2018-10-19T10:38:27.909Z,15.30
2018-10-19T10:40:57.421Z,15.40
2018-10-19T10:43:26.970Z,15.30
2018-10-19T10:45:56.523Z,15.10
2018-10-19T10:48:25.855Z,15.20
2018-10-19T10:50:55.712Z,15.30
2018-10-19T10:53:25.138Z,15.10
2018-10-19T10:55:55.454Z,15.50
2018-10-19T10:58:24.863Z,15.40
2018-10-19T11:00:54.422Z,15.60
2018-10-19T11:03:23.761Z,15.50
2018-10-19T11:05:53.228Z,15.60
2018-10-19T11:08:22.731Z,15.70
2018-10-19T11:10:52.266Z,15.60
2018-10-19T11:13:22.125Z,16.10
2018-10-19T11:15:51.586Z,16.40
2018-10-19T11:18:21.123Z,16.30
2018-10-19T11:20:50.566Z,16.20
2018-10-19T11:23:19.964Z,16.00
2018-10-19T11:25:49.403Z,16.20
2018-10-19T11:28:18.792Z,16.50
2018-10-19T11:30:48.725Z,16.50
2018-10-19T11:33:18.087Z,16.60
2018-10-19T11:35:47.457Z,16.70
2018-10-19T11:38:16.765Z,16.60
2018-10-19T11:40:46.197Z,16.70
2018-10-19T11:43:15.685Z,16.80
2018-10-19T11:45:45.003Z,16.90
2018-10-19T11:48:14.491Z,16.80
2018-10-19T11:50:43.904Z,17.20
2018-10-19T11:53:13.431Z,17.10
2018-10-19T11:55:42.877Z,17.00
2018-10-19T11:58:12.295Z,16.80
2018-10-19T12:00:41.550Z,16.90
2018-10-19T12:03:10.886Z,17.10
2018-10-19T12:05:40.251Z,17.10
2018-10-19T12:08:10.481Z,16.70
2018-10-19T12:10:39.890Z,16.90
2018-10-19T12:13:09.382Z,16.90
2018-10-19T12:15:39.651Z,17.10
2018-10-19T12:18:08.951Z,17.30
2018-10-19T12:20:38.483Z,17.50
2018-10-19T12:23:08.472Z,17.30
2018-10-19T12:25:38.805Z,17.10
2018-10-19T12:28:08.335Z,17.40
2018-10-19T12:30:37.704Z,17.20
2018-10-19T12:33:07.130Z,17.50
2018-10-19T12:35:36.608Z,17.20
2018-10-19T12:38:05.964Z,17.30
2018-10-19T12:40:35.347Z,17.00
2018-10-19T12:43:06.173Z,17.30
2018-10-19T12:46:45.411Z,17.50
2018-10-19T12:49:18.334Z,17.40
2018-10-19T12:51:47.873Z,17.00
2018-10-19T12:54:17.429Z,16.90
2018-10-19T12:56:47.709Z,16.80
2018-10-19T12:59:17.103Z,17.50
2018-10-19T13:01:46.440Z,17.60
2018-10-19T13:04:15.812Z,17.70
2018-10-19T13:06:45.169Z,18.10
2018-10-19T13:09:14.932Z,18.00
2018-10-19T13:11:44.227Z,18.30
2018-10-19T13:14:13.643Z,18.20
2018-10-19T13:16:43.021Z,18.10
2018-10-19T13:19:12.437Z,18.00
2018-10-19T13:21:41.684Z,17.70
2018-10-19T13:24:11.313Z,17.60
2018-10-19T13:26:40.642Z,17.70
2018-10-19T13:29:10.529Z,18.10
2018-10-19T13:31:39.980Z,18.40
2018-10-19T13:34:09.348Z,17.60
2018-10-19T13:36:38.647Z,17.80
2018-10-19T13:39:09.861Z,17.70
2018-10-19T13:41:39.668Z,17.40
2018-10-19T13:44:09.362Z,17.40
2018-10-19T13:46:38.779Z,17.20
2018-10-19T13:49:08.135Z,17.00
2018-10-19T13:51:37.544Z,17.00
2018-10-19T13:54:07.102Z,16.90
2018-10-19T13:56:37.195Z,16.70
2018-10-19T13:59:06.705Z,16.50
2018-10-19T14:01:36.065Z,16.70
2018-10-19T14:04:05.715Z,16.80
2018-10-19T14:06:35.036Z,16.50
2018-10-19T14:09:06.008Z,16.20
2018-10-19T14:11:40.784Z,16.30
2018-10-19T14:14:10.271Z,16.10
2018-10-19T14:16:39.761Z,16.10
2018-10-19T14:19:09.179Z,16.30
2018-10-19T14:21:38.497Z,16.50
2018-10-19T14:24:07.802Z,16.80
2018-10-19T14:26:37.176Z,16.80
2018-10-19T15:12:19.080Z,16.10
2018-10-19T15:14:48.509Z,16.30
2018-10-19T15:17:17.884Z,16.40
2018-10-19T15:19:47.242Z,16.20
2018-10-19T15:22:16.689Z,16.20
2018-10-19T15:24:46.115Z,16.20
2018-10-19T15:27:15.557Z,16.00
2018-10-19T15:29:46.753Z,16.00
2018-10-19T15:32:16.259Z,15.80
2018-10-19T15:34:45.652Z,15.80
2018-10-19T15:37:15.156Z,15.70
2018-10-19T15:39:44.482Z,15.60
2018-10-19T15:42:13.982Z,15.50
2018-10-19T15:44:43.220Z,15.40
2018-10-19T15:47:12.561Z,15.40
2018-10-19T15:49:41.907Z,15.40
2018-10-19T15:52:11.248Z,15.30
2018-10-19T15:54:40.656Z,15.20
2018-10-19T15:57:10.726Z,15.10
2018-10-19T15:59:40.005Z,15.00
2018-10-19T16:02:09.328Z,14.90
2018-10-19T16:04:38.892Z,14.90
2018-10-19T16:07:08.297Z,14.90
2018-10-19T16:09:37.655Z,14.80
2018-10-19T16:12:07.096Z,14.80
2018-10-19T16:14:36.436Z,14.70
2018-10-19T16:17:06.193Z,14.60
2018-10-19T16:19:35.616Z,14.70
2018-10-19T16:22:05.335Z,14.70
2018-10-19T16:24:34.816Z,14.70
2018-10-19T16:27:04.245Z,14.70
2018-10-19T16:29:33.885Z,14.70
2018-10-19T16:32:03.370Z,14.70
2018-10-19T16:34:32.865Z,14.60
2018-10-19T16:37:02.323Z,14.60
2018-10-19T16:39:31.829Z,14.70
2018-10-19T16:42:01.239Z,14.70
2018-10-19T16:44:30.540Z,14.70
2018-10-19T16:47:00.350Z,14.60
2018-10-19T16:49:29.816Z,14.60
2018-10-19T16:51:59.302Z,14.50
2018-10-19T16:54:28.852Z,14.50
2018-10-19T16:56:58.376Z,14.50
2018-10-19T16:59:27.743Z,14.50
2018-10-19T17:01:57.173Z,14.50
2018-10-19T17:04:26.650Z,14.50
2018-10-19T17:06:56.139Z,14.40
2018-10-19T17:09:25.670Z,14.40
2018-10-19T17:11:55.182Z,14.40
2018-10-19T17:14:24.589Z,14.50
2018-10-19T17:16:54.491Z,14.50
2018-10-19T17:19:23.878Z,14.30
2018-10-19T17:21:53.234Z,14.20
2018-10-19T17:24:22.682Z,14.20
2018-10-19T17:26:52.166Z,14.20
2018-10-19T17:29:21.503Z,14.30
2018-10-19T17:31:50.936Z,14.30
2018-10-19T17:34:20.288Z,14.30
2018-10-19T17:36:49.768Z,14.30
2018-10-19T17:39:19.483Z,14.30
2018-10-19T17:41:48.772Z,14.30
2018-10-19T17:44:18.097Z,14.40
2018-10-19T17:46:47.429Z,14.40
2018-10-19T17:49:16.907Z,14.50
2018-10-19T17:51:46.189Z,14.40
2018-10-19T17:54:16.012Z,14.40
2018-10-19T17:56:45.419Z,14.30
2018-10-19T17:59:14.793Z,14.20
2018-10-19T18:01:44.223Z,14.20
2018-10-19T18:04:14.122Z,14.20
2018-10-19T18:06:43.552Z,14.20
2018-10-19T18:09:13.411Z,14.10
2018-10-19T18:11:43.590Z,14.00
2018-10-19T18:14:12.950Z,14.00
2018-10-19T18:16:42.465Z,14.00
2018-10-19T18:19:11.759Z,14.00
2018-10-19T18:21:41.160Z,14.00
2018-10-19T18:24:10.463Z,13.90
2018-10-19T18:26:39.779Z,14.00
2018-10-19T18:29:09.180Z,13.80
2018-10-19T18:31:38.573Z,13.60
2018-10-19T18:34:07.887Z,13.60
2018-10-19T18:36:37.595Z,13.50
2018-10-19T18:39:09.804Z,13.60
2018-10-19T18:41:39.524Z,13.60
2018-10-19T18:44:09.354Z,13.60
2018-10-19T18:46:38.635Z,13.70
2018-10-19T18:49:08.778Z,13.70
2018-10-19T18:51:38.153Z,13.60
2018-10-19T18:54:07.599Z,13.60
2018-10-19T18:56:36.952Z,13.50
2018-10-19T18:59:06.426Z,13.50
2018-10-19T19:01:35.937Z,13.60
2018-10-19T19:04:05.582Z,13.60
2018-10-19T19:06:35.043Z,13.50
2018-10-19T19:09:06.437Z,13.50
2018-10-19T19:11:36.322Z,13.40
2018-10-19T19:14:06.061Z,13.40
2018-10-19T19:16:35.424Z,13.50
2018-10-19T19:19:04.966Z,13.40
2018-10-19T19:21:34.633Z,13.40
2018-10-19T19:24:09.135Z,13.30
2018-10-19T19:26:38.806Z,13.40
2018-10-19T19:29:08.466Z,13.30
2018-10-19T19:31:37.806Z,13.40
2018-10-19T19:34:12.563Z,13.40
2018-10-19T19:36:42.087Z,13.30
2018-10-19T19:39:11.499Z,13.30
2018-10-19T19:41:46.125Z,13.30
2018-10-19T19:44:15.575Z,13.20
2018-10-19T19:46:44.921Z,13.20
2018-10-19T19:49:19.715Z,13.20
2018-10-19T19:51:49.229Z,13.30
2018-10-19T19:54:18.682Z,13.20
2018-10-19T19:56:48.069Z,13.30
2018-10-19T19:59:17.454Z,13.20
2018-10-19T20:01:46.738Z,13.30
2018-10-19T20:04:16.057Z,13.30
2018-10-19T20:06:45.411Z,13.20
2018-10-19T20:09:14.745Z,13.10
2018-10-19T20:11:44.110Z,13.10
2018-10-19T20:14:13.576Z,13.10
2018-10-19T20:16:42.779Z,13.10
2018-10-19T20:19:12.218Z,13.10
2018-10-19T20:21:41.809Z,13.10
2018-10-19T20:24:11.906Z,13.00
2018-10-19T20:26:42.136Z,13.10
2018-10-19T20:29:11.572Z,13.10
2018-10-19T20:31:41.043Z,13.10
2018-10-19T20:34:10.582Z,13.00
2018-10-19T20:36:40.330Z,12.90
2018-10-19T20:39:12.149Z,12.90
2018-10-19T20:41:42.194Z,12.80
2018-10-19T20:44:12.091Z,12.70
2018-10-19T20:46:42.531Z,12.70
2018-10-19T20:49:12.562Z,12.70
2018-10-19T20:51:42.576Z,12.70
2018-10-19T20:54:13.983Z,12.60
2018-10-19T20:56:44.317Z,12.50
2018-10-19T20:59:15.668Z,12.40
2018-10-19T21:01:47.104Z,12.40
2018-10-19T21:04:21.538Z,12.20
2018-10-19T21:06:55.018Z,12.10
2018-10-19T21:09:24.977Z,12.00
2018-10-19T21:11:54.279Z,12.00
2018-10-19T21:14:23.655Z,11.90
2018-10-19T21:16:53.148Z,12.00
2018-10-19T21:19:22.487Z,12.10
2018-10-19T21:21:51.900Z,12.20
2018-10-19T21:24:21.345Z,12.10
2018-10-19T21:26:51.111Z,12.00
2018-10-19T21:29:20.581Z,11.90
2018-10-19T21:31:50.175Z,12.00
2018-10-19T21:34:19.601Z,12.00
2018-10-19T21:36:49.055Z,12.00
2018-10-19T21:39:18.396Z,12.10
2018-10-19T21:41:47.820Z,12.20
2018-10-19T21:44:17.189Z,12.10
2018-10-19T21:46:46.644Z,12.10
2018-10-19T21:49:17.360Z,12.10
2018-10-19T21:51:46.759Z,12.10
2018-10-19T21:54:16.085Z,12.10
2018-10-19T21:56:45.438Z,12.00
2018-10-19T21:59:14.822Z,12.00
2018-10-19T22:01:44.239Z,12.00
2018-10-19T22:04:13.592Z,11.90
2018-10-19T22:06:43.070Z,12.00
2018-10-19T22:09:13.339Z,12.00
2018-10-19T22:11:43.050Z,12.10
2018-10-19T22:14:12.361Z,12.00
2018-10-19T22:16:42.066Z,11.90
2018-10-19T22:19:11.669Z,11.80
2018-10-19T22:21:41.490Z,11.50
2018-10-19T22:24:11.200Z,11.40
2018-10-19T22:26:40.597Z,11.50
2018-10-19T22:29:10.146Z,11.40
2018-10-19T22:31:39.518Z,11.40
2018-10-19T22:34:08.887Z,11.50
2018-10-19T22:36:38.256Z,11.70
2018-10-19T22:39:08.451Z,11.80
2018-10-19T22:41:38.070Z,12.00
2018-10-19T22:44:07.432Z,12.00
2018-10-19T22:46:36.942Z,12.00
2018-10-19T22:49:06.606Z,12.00
2018-10-19T22:51:35.879Z,11.80
2018-10-19T22:54:05.543Z,11.70
2018-10-19T22:56:35.079Z,11.70
2018-10-19T22:59:05.265Z,11.60
2018-10-19T23:01:34.991Z,11.80
2018-10-19T23:04:04.836Z,11.80
2018-10-19T23:06:34.229Z,11.80
2018-10-19T23:09:04.346Z,11.70
2018-10-19T23:11:34.362Z,11.70
2018-10-19T23:14:03.738Z,11.60
2018-10-19T23:16:33.551Z,11.60
2018-10-19T23:19:03.027Z,11.60
2018-10-19T23:21:32.353Z,11.70
2018-10-19T23:24:01.640Z,11.60
2018-10-19T23:26:31.121Z,11.60
2018-10-19T23:29:00.446Z,11.60
2018-10-19T23:31:30.126Z,11.60
2018-10-19T23:33:59.384Z,11.70
2018-10-19T23:36:28.819Z,11.70
2018-10-19T23:38:58.132Z,11.70
2018-10-19T23:41:27.561Z,11.80
2018-10-19T23:43:56.941Z,11.80
2018-10-19T23:46:26.360Z,11.90
2018-10-19T23:48:55.703Z,11.90
2018-10-19T23:51:25.115Z,11.80
2018-10-19T23:53:54.474Z,11.80
2018-10-19T23:56:23.920Z,11.80
2018-10-19T23:58:53.327Z,11.80
